sensor_id;sensor_type;location;lat;lon;timestamp;P1;durP1;ratioP1;P2;durP2;ratioP2
65387;SDS011;51992;53.528;49.474;2023-11-19T00:00:42;11.95;;;3.13;;
65387;SDS011;51992;53.528;49.474;2023-11-19T00:03:08;4.55;;;2.42;;
65387;SDS011;51992;53.528;49.474;2023-11-19T00:05:34;3.08;;;2.42;;
65387;SDS011;51992;53.528;49.474;2023-11-19T00:07:59;4.00;;;2.28;;
65387;SDS011;51992;53.528;49.474;2023-11-19T00:10:25;5.65;;;2.60;;
65387;SDS011;51992;53.528;49.474;2023-11-19T00:12:51;10.23;;;3.08;;
65387;SDS011;51992;53.528;49.474;2023-11-19T00:15:17;17.77;;;3.60;;
65387;SDS011;51992;53.528;49.474;2023-11-19T00:17:46;4.47;;;2.80;;
65387;SDS011;51992;53.528;49.474;2023-11-19T00:20:13;12.50;;;2.90;;
65387;SDS011;51992;53.528;49.474;2023-11-19T00:22:39;32.58;;;5.05;;
65387;SDS011;51992;53.528;49.474;2023-11-19T00:25:05;31.58;;;5.18;;
65387;SDS011;51992;53.528;49.474;2023-11-19T00:27:31;20.17;;;4.85;;
65387;SDS011;51992;53.528;49.474;2023-11-19T00:29:57;24.77;;;3.75;;
65387;SDS011;51992;53.528;49.474;2023-11-19T00:32:22;7.07;;;3.15;;
65387;SDS011;51992;53.528;49.474;2023-11-19T00:34:48;4.65;;;2.70;;
65387;SDS011;51992;53.528;49.474;2023-11-19T00:37:14;8.00;;;2.88;;
65387;SDS011;51992;53.528;49.474;2023-11-19T00:39:43;3.38;;;2.50;;
65387;SDS011;51992;53.528;49.474;2023-11-19T00:42:09;4.18;;;2.60;;
65387;SDS011;51992;53.528;49.474;2023-11-19T00:44:35;2.97;;;2.33;;
65387;SDS011;51992;53.528;49.474;2023-11-19T00:47:01;5.75;;;2.50;;
65387;SDS011;51992;53.528;49.474;2023-11-19T00:49:27;3.67;;;2.45;;
65387;SDS011;51992;53.528;49.474;2023-11-19T00:51:53;2.53;;;2.33;;
65387;SDS011;51992;53.528;49.474;2023-11-19T00:54:19;5.60;;;2.70;;
65387;SDS011;51992;53.528;49.474;2023-11-19T00:56:45;6.03;;;3.00;;
65387;SDS011;51992;53.528;49.474;2023-11-19T00:59:11;4.90;;;2.95;;
65387;SDS011;51992;53.528;49.474;2023-11-19T01:01:37;5.60;;;2.60;;
65387;SDS011;51992;53.528;49.474;2023-11-19T01:04:03;5.32;;;2.60;;
65387;SDS011;51992;53.528;49.474;2023-11-19T01:06:29;2.53;;;2.33;;
65387;SDS011;51992;53.528;49.474;2023-11-19T01:08:56;5.22;;;2.50;;
65387;SDS011;51992;53.528;49.474;2023-11-19T01:11:25;2.85;;;2.30;;
65387;SDS011;51992;53.528;49.474;2023-11-19T01:13:51;6.03;;;2.08;;
65387;SDS011;51992;53.528;49.474;2023-11-19T01:16:17;10.13;;;2.70;;
65387;SDS011;51992;53.528;49.474;2023-11-19T01:18:47;3.42;;;2.40;;
65387;SDS011;51992;53.528;49.474;2023-11-19T01:21:14;3.90;;;2.13;;
65387;SDS011;51992;53.528;49.474;2023-11-19T01:23:40;2.80;;;2.17;;
65387;SDS011;51992;53.528;49.474;2023-11-19T01:26:09;3.30;;;2.50;;
65387;SDS011;51992;53.528;49.474;2023-11-19T01:28:36;2.50;;;2.20;;
65387;SDS011;51992;53.528;49.474;2023-11-19T01:31:02;2.40;;;1.92;;
65387;SDS011;51992;53.528;49.474;2023-11-19T01:33:29;3.42;;;2.33;;
65387;SDS011;51992;53.528;49.474;2023-11-19T01:35:55;2.60;;;2.33;;
65387;SDS011;51992;53.528;49.474;2023-11-19T01:38:24;3.28;;;2.47;;
65387;SDS011;51992;53.528;49.474;2023-11-19T01:40:50;4.20;;;2.53;;
65387;SDS011;51992;53.528;49.474;2023-11-19T01:45:58;4.45;;;2.17;;
65387;SDS011;51992;53.528;49.474;2023-11-19T01:48:24;11.02;;;6.03;;
65387;SDS011;51992;53.528;49.474;2023-11-19T01:50:50;5.88;;;3.42;;
65387;SDS011;51992;53.528;49.474;2023-11-19T01:53:17;5.60;;;3.00;;
65387;SDS011;51992;53.528;49.474;2023-11-19T01:55:43;5.57;;;2.75;;
65387;SDS011;51992;53.528;49.474;2023-11-19T01:58:09;10.65;;;4.70;;
65387;SDS011;51992;53.528;49.474;2023-11-19T02:00:35;17.20;;;6.32;;
65387;SDS011;51992;53.528;49.474;2023-11-19T02:03:00;18.25;;;7.25;;
65387;SDS011;51992;53.528;49.474;2023-11-19T02:05:26;20.10;;;9.18;;
65387;SDS011;51992;53.528;49.474;2023-11-19T02:07:52;23.98;;;11.15;;
65387;SDS011;51992;53.528;49.474;2023-11-19T02:10:18;33.50;;;15.38;;
65387;SDS011;51992;53.528;49.474;2023-11-19T02:12:44;36.47;;;15.23;;
65387;SDS011;51992;53.528;49.474;2023-11-19T02:15:11;18.35;;;7.22;;
65387;SDS011;51992;53.528;49.474;2023-11-19T02:17:37;24.85;;;12.05;;
65387;SDS011;51992;53.528;49.474;2023-11-19T02:20:06;19.27;;;10.95;;
65387;SDS011;51992;53.528;49.474;2023-11-19T02:22:34;24.33;;;12.82;;
65387;SDS011;51992;53.528;49.474;2023-11-19T02:25:00;20.42;;;11.07;;
65387;SDS011;51992;53.528;49.474;2023-11-19T02:30:02;11.45;;;6.20;;
65387;SDS011;51992;53.528;49.474;2023-11-19T02:32:34;8.02;;;4.43;;
65387;SDS011;51992;53.528;49.474;2023-11-19T02:35:01;8.20;;;5.78;;
65387;SDS011;51992;53.528;49.474;2023-11-19T02:37:27;11.23;;;7.38;;
65387;SDS011;51992;53.528;49.474;2023-11-19T02:39:53;7.93;;;4.88;;
65387;SDS011;51992;53.528;49.474;2023-11-19T02:42:19;14.57;;;8.50;;
65387;SDS011;51992;53.528;49.474;2023-11-19T02:44:45;26.58;;;12.95;;
65387;SDS011;51992;53.528;49.474;2023-11-19T02:47:11;19.00;;;10.73;;
65387;SDS011;51992;53.528;49.474;2023-11-19T02:49:37;20.23;;;10.20;;
65387;SDS011;51992;53.528;49.474;2023-11-19T02:52:03;24.00;;;12.65;;
65387;SDS011;51992;53.528;49.474;2023-11-19T02:54:31;31.50;;;16.48;;
65387;SDS011;51992;53.528;49.474;2023-11-19T02:57:00;24.63;;;14.05;;
65387;SDS011;51992;53.528;49.474;2023-11-19T02:59:29;13.93;;;8.88;;
65387;SDS011;51992;53.528;49.474;2023-11-19T03:02:04;9.57;;;5.00;;
65387;SDS011;51992;53.528;49.474;2023-11-19T03:04:35;5.07;;;2.70;;
65387;SDS011;51992;53.528;49.474;2023-11-19T03:07:01;6.30;;;3.42;;
65387;SDS011;51992;53.528;49.474;2023-11-19T03:09:27;6.32;;;5.15;;
65387;SDS011;51992;53.528;49.474;2023-11-19T03:11:54;4.82;;;3.05;;
65387;SDS011;51992;53.528;49.474;2023-11-19T03:14:20;4.70;;;2.65;;
65387;SDS011;51992;53.528;49.474;2023-11-19T03:16:48;5.45;;;2.65;;
65387;SDS011;51992;53.528;49.474;2023-11-19T03:19:14;6.25;;;3.10;;
65387;SDS011;51992;53.528;49.474;2023-11-19T03:21:40;5.50;;;3.30;;
65387;SDS011;51992;53.528;49.474;2023-11-19T03:24:06;4.30;;;2.90;;
65387;SDS011;51992;53.528;49.474;2023-11-19T03:26:34;3.95;;;2.60;;
65387;SDS011;51992;53.528;49.474;2023-11-19T03:29:00;4.38;;;3.03;;
65387;SDS011;51992;53.528;49.474;2023-11-19T03:31:26;3.40;;;3.10;;
65387;SDS011;51992;53.528;49.474;2023-11-19T03:33:52;5.15;;;3.28;;
65387;SDS011;51992;53.528;49.474;2023-11-19T03:36:18;4.00;;;3.22;;
65387;SDS011;51992;53.528;49.474;2023-11-19T03:38:44;6.30;;;2.90;;
65387;SDS011;51992;53.528;49.474;2023-11-19T03:41:13;6.00;;;5.20;;
65387;SDS011;51992;53.528;49.474;2023-11-19T03:43:39;7.82;;;6.32;;
65387;SDS011;51992;53.528;49.474;2023-11-19T03:46:15;13.73;;;9.50;;
65387;SDS011;51992;53.528;49.474;2023-11-19T03:48:41;37.72;;;20.45;;
65387;SDS011;51992;53.528;49.474;2023-11-19T03:51:07;46.35;;;24.05;;
65387;SDS011;51992;53.528;49.474;2023-11-19T03:53:33;55.47;;;25.85;;
65387;SDS011;51992;53.528;49.474;2023-11-19T03:55:59;42.70;;;18.17;;
65387;SDS011;51992;53.528;49.474;2023-11-19T03:58:25;30.92;;;6.30;;
65387;SDS011;51992;53.528;49.474;2023-11-19T04:00:51;21.85;;;7.38;;
65387;SDS011;51992;53.528;49.474;2023-11-19T04:03:18;57.78;;;24.92;;
65387;SDS011;51992;53.528;49.474;2023-11-19T04:05:45;106.32;;;50.92;;
65387;SDS011;51992;53.528;49.474;2023-11-19T04:08:11;56.00;;;26.13;;
65387;SDS011;51992;53.528;49.474;2023-11-19T04:10:37;50.40;;;25.38;;
65387;SDS011;51992;53.528;49.474;2023-11-19T04:13:02;29.33;;;15.13;;
65387;SDS011;51992;53.528;49.474;2023-11-19T04:15:28;37.05;;;19.00;;
65387;SDS011;51992;53.528;49.474;2023-11-19T04:17:54;27.65;;;12.43;;
65387;SDS011;51992;53.528;49.474;2023-11-19T04:20:20;34.10;;;13.60;;
65387;SDS011;51992;53.528;49.474;2023-11-19T04:22:46;36.72;;;13.45;;
65387;SDS011;51992;53.528;49.474;2023-11-19T04:25:12;35.60;;;12.43;;
65387;SDS011;51992;53.528;49.474;2023-11-19T04:27:39;26.45;;;12.25;;
65387;SDS011;51992;53.528;49.474;2023-11-19T04:30:05;30.58;;;14.45;;
65387;SDS011;51992;53.528;49.474;2023-11-19T04:32:35;33.80;;;16.13;;
65387;SDS011;51992;53.528;49.474;2023-11-19T04:35:01;30.90;;;16.40;;
65387;SDS011;51992;53.528;49.474;2023-11-19T04:37:27;13.63;;;7.15;;
65387;SDS011;51992;53.528;49.474;2023-11-19T04:39:53;10.02;;;5.30;;
65387;SDS011;51992;53.528;49.474;2023-11-19T04:42:19;6.43;;;2.95;;
65387;SDS011;51992;53.528;49.474;2023-11-19T04:44:47;12.07;;;4.15;;
65387;SDS011;51992;53.528;49.474;2023-11-19T04:47:13;8.20;;;5.72;;
65387;SDS011;51992;53.528;49.474;2023-11-19T04:49:40;13.40;;;8.68;;
65387;SDS011;51992;53.528;49.474;2023-11-19T04:52:08;11.25;;;5.90;;
65387;SDS011;51992;53.528;49.474;2023-11-19T04:54:34;18.77;;;5.53;;
65387;SDS011;51992;53.528;49.474;2023-11-19T04:57:00;18.83;;;9.20;;
65387;SDS011;51992;53.528;49.474;2023-11-19T04:59:26;16.95;;;10.73;;
65387;SDS011;51992;53.528;49.474;2023-11-19T05:01:53;16.85;;;7.30;;
65387;SDS011;51992;53.528;49.474;2023-11-19T05:04:19;23.08;;;8.82;;
65387;SDS011;51992;53.528;49.474;2023-11-19T05:06:45;17.00;;;6.57;;
65387;SDS011;51992;53.528;49.474;2023-11-19T05:09:11;14.48;;;7.57;;
65387;SDS011;51992;53.528;49.474;2023-11-19T05:11:38;15.85;;;6.97;;
65387;SDS011;51992;53.528;49.474;2023-11-19T05:14:05;7.95;;;3.78;;
65387;SDS011;51992;53.528;49.474;2023-11-19T05:16:31;5.75;;;2.90;;
65387;SDS011;51992;53.528;49.474;2023-11-19T05:18:57;5.68;;;2.88;;
65387;SDS011;51992;53.528;49.474;2023-11-19T05:21:23;9.07;;;3.03;;
65387;SDS011;51992;53.528;49.474;2023-11-19T05:23:49;9.50;;;3.47;;
65387;SDS011;51992;53.528;49.474;2023-11-19T05:26:19;6.15;;;3.25;;
65387;SDS011;51992;53.528;49.474;2023-11-19T05:28:45;7.35;;;4.40;;
65387;SDS011;51992;53.528;49.474;2023-11-19T05:31:11;5.43;;;2.90;;
65387;SDS011;51992;53.528;49.474;2023-11-19T05:33:37;3.25;;;2.22;;
65387;SDS011;51992;53.528;49.474;2023-11-19T05:36:04;3.40;;;2.20;;
65387;SDS011;51992;53.528;49.474;2023-11-19T05:38:30;4.65;;;2.08;;
65387;SDS011;51992;53.528;49.474;2023-11-19T05:40:56;11.70;;;3.10;;
65387;SDS011;51992;53.528;49.474;2023-11-19T05:43:22;3.28;;;1.90;;
65387;SDS011;51992;53.528;49.474;2023-11-19T05:45:48;3.15;;;1.90;;
65387;SDS011;51992;53.528;49.474;2023-11-19T05:48:14;5.97;;;2.50;;
65387;SDS011;51992;53.528;49.474;2023-11-19T05:50:40;4.10;;;2.80;;
65387;SDS011;51992;53.528;49.474;2023-11-19T05:53:06;4.20;;;2.58;;
65387;SDS011;51992;53.528;49.474;2023-11-19T05:55:36;5.03;;;2.78;;
65387;SDS011;51992;53.528;49.474;2023-11-19T05:58:03;11.13;;;3.05;;
65387;SDS011;51992;53.528;49.474;2023-11-19T06:00:29;8.48;;;3.30;;
65387;SDS011;51992;53.528;49.474;2023-11-19T06:02:56;5.53;;;2.97;;
65387;SDS011;51992;53.528;49.474;2023-11-19T06:05:22;8.25;;;3.42;;
65387;SDS011;51992;53.528;49.474;2023-11-19T06:07:48;9.07;;;3.70;;
65387;SDS011;51992;53.528;49.474;2023-11-19T06:10:13;14.05;;;5.10;;
65387;SDS011;51992;53.528;49.474;2023-11-19T06:12:42;5.15;;;2.90;;
65387;SDS011;51992;53.528;49.474;2023-11-19T06:15:08;11.60;;;4.57;;
65387;SDS011;51992;53.528;49.474;2023-11-19T06:17:34;9.52;;;3.92;;
65387;SDS011;51992;53.528;49.474;2023-11-19T06:20:00;7.50;;;3.40;;
65387;SDS011;51992;53.528;49.474;2023-11-19T06:22:26;5.82;;;3.72;;
65387;SDS011;51992;53.528;49.474;2023-11-19T06:24:52;4.53;;;2.67;;
65387;SDS011;51992;53.528;49.474;2023-11-19T06:27:18;9.32;;;4.40;;
65387;SDS011;51992;53.528;49.474;2023-11-19T06:29:43;12.50;;;3.47;;
65387;SDS011;51992;53.528;49.474;2023-11-19T06:32:10;4.82;;;3.15;;
65387;SDS011;51992;53.528;49.474;2023-11-19T06:34:35;8.88;;;3.47;;
65387;SDS011;51992;53.528;49.474;2023-11-19T06:37:02;4.15;;;2.25;;
65387;SDS011;51992;53.528;49.474;2023-11-19T06:39:29;6.03;;;3.17;;
65387;SDS011;51992;53.528;49.474;2023-11-19T06:41:55;6.00;;;3.08;;
65387;SDS011;51992;53.528;49.474;2023-11-19T06:44:22;5.75;;;2.22;;
65387;SDS011;51992;53.528;49.474;2023-11-19T06:46:48;3.58;;;1.92;;
65387;SDS011;51992;53.528;49.474;2023-11-19T06:49:14;5.63;;;2.05;;
65387;SDS011;51992;53.528;49.474;2023-11-19T06:51:43;2.47;;;2.15;;
65387;SDS011;51992;53.528;49.474;2023-11-19T06:54:09;2.42;;;2.20;;
65387;SDS011;51992;53.528;49.474;2023-11-19T06:56:35;5.63;;;3.25;;
65387;SDS011;51992;53.528;49.474;2023-11-19T06:59:00;3.35;;;2.42;;
65387;SDS011;51992;53.528;49.474;2023-11-19T07:01:26;2.90;;;2.20;;
65387;SDS011;51992;53.528;49.474;2023-11-19T07:03:52;3.53;;;2.03;;
65387;SDS011;51992;53.528;49.474;2023-11-19T07:06:18;4.28;;;2.70;;
65387;SDS011;51992;53.528;49.474;2023-11-19T07:08:44;8.75;;;2.30;;
65387;SDS011;51992;53.528;49.474;2023-11-19T07:11:13;2.90;;;2.08;;
65387;SDS011;51992;53.528;49.474;2023-11-19T07:13:42;5.70;;;2.50;;
65387;SDS011;51992;53.528;49.474;2023-11-19T07:16:08;6.18;;;2.80;;
65387;SDS011;51992;53.528;49.474;2023-11-19T07:18:35;5.90;;;2.17;;
65387;SDS011;51992;53.528;49.474;2023-11-19T07:21:01;4.50;;;2.75;;
65387;SDS011;51992;53.528;49.474;2023-11-19T07:23:28;5.93;;;2.45;;
65387;SDS011;51992;53.528;49.474;2023-11-19T07:25:54;2.97;;;2.67;;
65387;SDS011;51992;53.528;49.474;2023-11-19T07:28:19;6.15;;;2.50;;
65387;SDS011;51992;53.528;49.474;2023-11-19T07:30:45;6.28;;;2.78;;
65387;SDS011;51992;53.528;49.474;2023-11-19T07:33:11;4.15;;;2.63;;
65387;SDS011;51992;53.528;49.474;2023-11-19T07:35:39;7.93;;;2.60;;
65387;SDS011;51992;53.528;49.474;2023-11-19T07:38:06;5.10;;;2.72;;
65387;SDS011;51992;53.528;49.474;2023-11-19T07:40:32;4.53;;;3.10;;
65387;SDS011;51992;53.528;49.474;2023-11-19T07:42:58;10.93;;;3.40;;
65387;SDS011;51992;53.528;49.474;2023-11-19T07:45:24;2.65;;;2.30;;
65387;SDS011;51992;53.528;49.474;2023-11-19T07:47:50;5.75;;;2.95;;
65387;SDS011;51992;53.528;49.474;2023-11-19T07:50:16;3.78;;;2.80;;
65387;SDS011;51992;53.528;49.474;2023-11-19T07:52:44;4.47;;;3.40;;
65387;SDS011;51992;53.528;49.474;2023-11-19T07:55:10;7.28;;;3.10;;
65387;SDS011;51992;53.528;49.474;2023-11-19T07:57:36;5.22;;;3.40;;
65387;SDS011;51992;53.528;49.474;2023-11-19T08:00:02;9.77;;;6.30;;
65387;SDS011;51992;53.528;49.474;2023-11-19T08:02:28;7.22;;;3.90;;
65387;SDS011;51992;53.528;49.474;2023-11-19T08:04:54;5.72;;;3.60;;
65387;SDS011;51992;53.528;49.474;2023-11-19T08:07:23;5.93;;;3.30;;
65387;SDS011;51992;53.528;49.474;2023-11-19T08:09:49;6.78;;;3.20;;
65387;SDS011;51992;53.528;49.474;2023-11-19T08:12:14;4.82;;;3.60;;
65387;SDS011;51992;53.528;49.474;2023-11-19T08:14:42;7.20;;;3.60;;
65387;SDS011;51992;53.528;49.474;2023-11-19T08:17:09;4.38;;;3.45;;
65387;SDS011;51992;53.528;49.474;2023-11-19T08:19:35;6.68;;;4.43;;
65387;SDS011;51992;53.528;49.474;2023-11-19T08:22:00;12.88;;;3.78;;
65387;SDS011;51992;53.528;49.474;2023-11-19T08:24:26;5.63;;;3.53;;
65387;SDS011;51992;53.528;49.474;2023-11-19T08:26:52;11.85;;;2.90;;
65387;SDS011;51992;53.528;49.474;2023-11-19T08:29:17;4.57;;;2.80;;
65387;SDS011;51992;53.528;49.474;2023-11-19T08:31:43;6.28;;;4.05;;
65387;SDS011;51992;53.528;49.474;2023-11-19T08:34:09;4.53;;;3.08;;
65387;SDS011;51992;53.528;49.474;2023-11-19T08:36:36;3.67;;;3.38;;
65387;SDS011;51992;53.528;49.474;2023-11-19T08:39:02;4.00;;;3.70;;
65387;SDS011;51992;53.528;49.474;2023-11-19T08:41:28;3.60;;;3.30;;
65387;SDS011;51992;53.528;49.474;2023-11-19T08:43:54;6.15;;;3.65;;
65387;SDS011;51992;53.528;49.474;2023-11-19T08:46:19;16.02;;;8.15;;
65387;SDS011;51992;53.528;49.474;2023-11-19T08:48:45;26.60;;;11.75;;
65387;SDS011;51992;53.528;49.474;2023-11-19T08:51:12;4.43;;;3.80;;
65387;SDS011;51992;53.528;49.474;2023-11-19T08:53:38;4.38;;;3.97;;
65387;SDS011;51992;53.528;49.474;2023-11-19T08:56:03;8.15;;;5.65;;
65387;SDS011;51992;53.528;49.474;2023-11-19T08:58:29;4.68;;;3.70;;
65387;SDS011;51992;53.528;49.474;2023-11-19T09:00:56;3.47;;;2.90;;
65387;SDS011;51992;53.528;49.474;2023-11-19T09:03:21;7.50;;;3.67;;
65387;SDS011;51992;53.528;49.474;2023-11-19T09:05:47;8.18;;;4.30;;
65387;SDS011;51992;53.528;49.474;2023-11-19T09:08:13;3.28;;;2.97;;
65387;SDS011;51992;53.528;49.474;2023-11-19T09:10:38;6.18;;;3.40;;
65387;SDS011;51992;53.528;49.474;2023-11-19T09:13:04;3.75;;;3.45;;
65387;SDS011;51992;53.528;49.474;2023-11-19T09:15:30;14.30;;;8.63;;
65387;SDS011;51992;53.528;49.474;2023-11-19T09:17:55;19.35;;;12.15;;
65387;SDS011;51992;53.528;49.474;2023-11-19T09:20:21;12.15;;;8.80;;
65387;SDS011;51992;53.528;49.474;2023-11-19T09:22:47;9.75;;;5.95;;
65387;SDS011;51992;53.528;49.474;2023-11-19T09:25:13;11.75;;;7.05;;
65387;SDS011;51992;53.528;49.474;2023-11-19T09:27:45;6.15;;;4.18;;
65387;SDS011;51992;53.528;49.474;2023-11-19T09:30:11;4.32;;;3.60;;
65387;SDS011;51992;53.528;49.474;2023-11-19T09:32:36;4.50;;;3.80;;
65387;SDS011;51992;53.528;49.474;2023-11-19T09:35:03;6.15;;;5.50;;
65387;SDS011;51992;53.528;49.474;2023-11-19T09:37:29;8.65;;;5.57;;
65387;SDS011;51992;53.528;49.474;2023-11-19T09:39:54;11.27;;;5.07;;
65387;SDS011;51992;53.528;49.474;2023-11-19T09:42:20;6.32;;;4.40;;
65387;SDS011;51992;53.528;49.474;2023-11-19T09:44:46;5.68;;;5.15;;
65387;SDS011;51992;53.528;49.474;2023-11-19T09:47:13;8.40;;;5.28;;
65387;SDS011;51992;53.528;49.474;2023-11-19T09:49:39;5.75;;;4.45;;
65387;SDS011;51992;53.528;49.474;2023-11-19T09:52:05;5.78;;;3.80;;
65387;SDS011;51992;53.528;49.474;2023-11-19T09:54:31;6.38;;;3.70;;
65387;SDS011;51992;53.528;49.474;2023-11-19T09:56:57;7.22;;;4.00;;
65387;SDS011;51992;53.528;49.474;2023-11-19T09:59:28;4.30;;;3.45;;
65387;SDS011;51992;53.528;49.474;2023-11-19T10:01:55;5.68;;;3.50;;
65387;SDS011;51992;53.528;49.474;2023-11-19T10:04:22;8.55;;;3.72;;
65387;SDS011;51992;53.528;49.474;2023-11-19T10:06:49;4.35;;;3.08;;
65387;SDS011;51992;53.528;49.474;2023-11-19T10:09:15;4.95;;;3.28;;
65387;SDS011;51992;53.528;49.474;2023-11-19T10:11:41;13.10;;;4.65;;
65387;SDS011;51992;53.528;49.474;2023-11-19T10:14:06;16.48;;;4.22;;
65387;SDS011;51992;53.528;49.474;2023-11-19T10:16:34;14.82;;;5.30;;
65387;SDS011;51992;53.528;49.474;2023-11-19T10:18:59;29.10;;;4.53;;
65387;SDS011;51992;53.528;49.474;2023-11-19T10:21:25;16.40;;;4.55;;
65387;SDS011;51992;53.528;49.474;2023-11-19T10:23:53;6.43;;;3.47;;
65387;SDS011;51992;53.528;49.474;2023-11-19T10:26:20;4.88;;;3.63;;
65387;SDS011;51992;53.528;49.474;2023-11-19T10:28:46;6.03;;;3.55;;
65387;SDS011;51992;53.528;49.474;2023-11-19T10:31:13;5.70;;;3.38;;
65387;SDS011;51992;53.528;49.474;2023-11-19T10:33:38;5.05;;;3.50;;
65387;SDS011;51992;53.528;49.474;2023-11-19T10:36:04;9.50;;;5.00;;
65387;SDS011;51992;53.528;49.474;2023-11-19T10:38:30;10.73;;;4.13;;
65387;SDS011;51992;53.528;49.474;2023-11-19T10:40:56;11.73;;;4.75;;
65387;SDS011;51992;53.528;49.474;2023-11-19T10:43:22;5.05;;;3.28;;
65387;SDS011;51992;53.528;49.474;2023-11-19T10:45:51;3.92;;;3.40;;
65387;SDS011;51992;53.528;49.474;2023-11-19T10:48:17;3.88;;;3.35;;
65387;SDS011;51992;53.528;49.474;2023-11-19T10:50:43;7.07;;;3.83;;
65387;SDS011;51992;53.528;49.474;2023-11-19T10:53:12;8.82;;;3.58;;
65387;SDS011;51992;53.528;49.474;2023-11-19T10:55:38;7.07;;;4.25;;
65387;SDS011;51992;53.528;49.474;2023-11-19T10:58:08;7.18;;;3.80;;
65387;SDS011;51992;53.528;49.474;2023-11-19T11:03:20;8.88;;;5.43;;
65387;SDS011;51992;53.528;49.474;2023-11-19T11:05:49;8.52;;;4.65;;
65387;SDS011;51992;53.528;49.474;2023-11-19T11:08:15;9.75;;;7.25;;
65387;SDS011;51992;53.528;49.474;2023-11-19T11:10:45;8.25;;;7.00;;
65387;SDS011;51992;53.528;49.474;2023-11-19T11:13:11;13.18;;;7.53;;
65387;SDS011;51992;53.528;49.474;2023-11-19T11:15:38;9.60;;;7.00;;
65387;SDS011;51992;53.528;49.474;2023-11-19T11:18:04;8.93;;;4.95;;
65387;SDS011;51992;53.528;49.474;2023-11-19T11:20:33;10.82;;;4.78;;
65387;SDS011;51992;53.528;49.474;2023-11-19T11:28:13;9.52;;;5.10;;
65387;SDS011;51992;53.528;49.474;2023-11-19T11:30:46;7.28;;;5.45;;
65387;SDS011;51992;53.528;49.474;2023-11-19T11:38:17;7.97;;;4.80;;
65387;SDS011;51992;53.528;49.474;2023-11-19T11:41:08;5.40;;;4.22;;
65387;SDS011;51992;53.528;49.474;2023-11-19T11:43:43;18.02;;;7.45;;
65387;SDS011;51992;53.528;49.474;2023-11-19T11:46:09;16.42;;;5.95;;
65387;SDS011;51992;53.528;49.474;2023-11-19T11:48:35;8.85;;;6.18;;
65387;SDS011;51992;53.528;49.474;2023-11-19T11:51:08;6.03;;;4.70;;
65387;SDS011;51992;53.528;49.474;2023-11-19T11:53:34;6.57;;;5.35;;
65387;SDS011;51992;53.528;49.474;2023-11-19T11:56:00;11.82;;;6.55;;
65387;SDS011;51992;53.528;49.474;2023-11-19T11:58:29;6.22;;;4.82;;
65387;SDS011;51992;53.528;49.474;2023-11-19T12:00:59;7.97;;;7.10;;
65387;SDS011;51992;53.528;49.474;2023-11-19T12:03:27;9.80;;;5.65;;
65387;SDS011;51992;53.528;49.474;2023-11-19T12:05:53;11.90;;;7.20;;
65387;SDS011;51992;53.528;49.474;2023-11-19T12:08:19;8.07;;;5.72;;
65387;SDS011;51992;53.528;49.474;2023-11-19T12:10:47;5.45;;;4.80;;
65387;SDS011;51992;53.528;49.474;2023-11-19T12:13:13;10.05;;;6.00;;
65387;SDS011;51992;53.528;49.474;2023-11-19T12:18:26;10.23;;;5.50;;
65387;SDS011;51992;53.528;49.474;2023-11-19T12:20:52;13.10;;;6.35;;
65387;SDS011;51992;53.528;49.474;2023-11-19T12:23:18;9.07;;;5.63;;
65387;SDS011;51992;53.528;49.474;2023-11-19T12:25:44;9.70;;;6.38;;
65387;SDS011;51992;53.528;49.474;2023-11-19T12:28:13;8.20;;;6.88;;
65387;SDS011;51992;53.528;49.474;2023-11-19T12:30:39;13.18;;;7.55;;
65387;SDS011;51992;53.528;49.474;2023-11-19T12:33:09;8.23;;;6.90;;
65387;SDS011;51992;53.528;49.474;2023-11-19T12:35:42;11.32;;;8.32;;
65387;SDS011;51992;53.528;49.474;2023-11-19T12:38:08;10.07;;;7.57;;
65387;SDS011;51992;53.528;49.474;2023-11-19T12:40:43;14.32;;;7.65;;
65387;SDS011;51992;53.528;49.474;2023-11-19T12:43:09;10.30;;;7.28;;
65387;SDS011;51992;53.528;49.474;2023-11-19T12:45:35;11.00;;;6.93;;
65387;SDS011;51992;53.528;49.474;2023-11-19T12:48:05;9.65;;;5.68;;
65387;SDS011;51992;53.528;49.474;2023-11-19T12:50:50;10.82;;;6.10;;
65387;SDS011;51992;53.528;49.474;2023-11-19T12:53:15;7.93;;;5.65;;
65387;SDS011;51992;53.528;49.474;2023-11-19T12:55:41;12.93;;;7.57;;
65387;SDS011;51992;53.528;49.474;2023-11-19T12:58:07;14.05;;;7.05;;
65387;SDS011;51992;53.528;49.474;2023-11-19T13:00:32;16.92;;;6.47;;
65387;SDS011;51992;53.528;49.474;2023-11-19T13:02:58;8.98;;;5.88;;
65387;SDS011;51992;53.528;49.474;2023-11-19T13:05:28;7.05;;;5.65;;
65387;SDS011;51992;53.528;49.474;2023-11-19T13:08:04;14.52;;;6.50;;
65387;SDS011;51992;53.528;49.474;2023-11-19T13:10:31;9.30;;;5.72;;
65387;SDS011;51992;53.528;49.474;2023-11-19T13:13:08;10.05;;;6.55;;
65387;SDS011;51992;53.528;49.474;2023-11-19T13:15:34;14.10;;;6.50;;
65387;SDS011;51992;53.528;49.474;2023-11-19T13:18:01;12.38;;;7.00;;
65387;SDS011;51992;53.528;49.474;2023-11-19T13:20:27;13.15;;;7.30;;
65387;SDS011;51992;53.528;49.474;2023-11-19T13:23:04;14.60;;;6.97;;
65387;SDS011;51992;53.528;49.474;2023-11-19T13:25:30;28.55;;;11.10;;
65387;SDS011;51992;53.528;49.474;2023-11-19T13:27:57;21.02;;;10.38;;
65387;SDS011;51992;53.528;49.474;2023-11-19T13:30:23;17.95;;;9.27;;
65387;SDS011;51992;53.528;49.474;2023-11-19T13:32:49;20.15;;;9.95;;
65387;SDS011;51992;53.528;49.474;2023-11-19T13:35:15;16.52;;;10.27;;
65387;SDS011;51992;53.528;49.474;2023-11-19T13:37:42;20.08;;;10.60;;
65387;SDS011;51992;53.528;49.474;2023-11-19T13:40:08;21.27;;;9.98;;
65387;SDS011;51992;53.528;49.474;2023-11-19T13:42:40;18.88;;;9.48;;
65387;SDS011;51992;53.528;49.474;2023-11-19T13:45:09;16.83;;;9.50;;
65387;SDS011;51992;53.528;49.474;2023-11-19T13:47:45;17.75;;;9.10;;
65387;SDS011;51992;53.528;49.474;2023-11-19T13:50:12;16.83;;;9.00;;
65387;SDS011;51992;53.528;49.474;2023-11-19T13:52:38;17.30;;;8.85;;
65387;SDS011;51992;53.528;49.474;2023-11-19T13:55:07;28.35;;;15.00;;
65387;SDS011;51992;53.528;49.474;2023-11-19T13:57:34;28.80;;;15.40;;
65387;SDS011;51992;53.528;49.474;2023-11-19T14:00:00;36.30;;;17.75;;
65387;SDS011;51992;53.528;49.474;2023-11-19T14:02:28;51.80;;;18.70;;
65387;SDS011;51992;53.528;49.474;2023-11-19T14:04:54;51.22;;;19.13;;
65387;SDS011;51992;53.528;49.474;2023-11-19T14:07:20;39.22;;;16.13;;
65387;SDS011;51992;53.528;49.474;2023-11-19T14:09:45;46.40;;;22.38;;
65387;SDS011;51992;53.528;49.474;2023-11-19T14:12:11;53.60;;;21.65;;
65387;SDS011;51992;53.528;49.474;2023-11-19T14:14:38;26.02;;;15.25;;
65387;SDS011;51992;53.528;49.474;2023-11-19T14:17:04;22.73;;;13.52;;
65387;SDS011;51992;53.528;49.474;2023-11-19T14:19:30;24.65;;;12.82;;
65387;SDS011;51992;53.528;49.474;2023-11-19T14:21:56;22.20;;;12.88;;
65387;SDS011;51992;53.528;49.474;2023-11-19T14:24:22;20.50;;;12.25;;
65387;SDS011;51992;53.528;49.474;2023-11-19T14:26:48;19.17;;;12.30;;
65387;SDS011;51992;53.528;49.474;2023-11-19T14:29:15;20.85;;;11.38;;
65387;SDS011;51992;53.528;49.474;2023-11-19T14:31:41;21.05;;;13.43;;
65387;SDS011;51992;53.528;49.474;2023-11-19T14:34:06;28.67;;;15.30;;
65387;SDS011;51992;53.528;49.474;2023-11-19T14:36:32;26.15;;;14.48;;
65387;SDS011;51992;53.528;49.474;2023-11-19T14:38:58;24.80;;;13.82;;
65387;SDS011;51992;53.528;49.474;2023-11-19T14:41:26;23.15;;;15.65;;
65387;SDS011;51992;53.528;49.474;2023-11-19T14:43:52;31.98;;;22.50;;